createdAt,value
2022-11-23T00:01:16.332Z,76.99
2022-11-23T00:03:43.976Z,76.98
2022-11-23T00:06:10.667Z,76.90
2022-11-23T00:08:37.321Z,76.91
2022-11-23T00:11:04.006Z,76.88
2022-11-23T00:13:31.034Z,76.99
2022-11-23T00:15:57.528Z,77.14
2022-11-23T00:22:11.534Z,77.15
2022-11-23T00:24:38.047Z,77.27
2022-11-23T00:27:04.559Z,76.99
2022-11-23T00:29:31.321Z,77.25
2022-11-23T00:31:58.029Z,77.56
2022-11-23T00:34:24.531Z,77.00
2022-11-23T00:36:51.874Z,77.31
2022-11-23T00:39:18.428Z,76.89
2022-11-23T00:41:44.989Z,76.84
2022-11-23T00:44:11.682Z,76.75
2022-11-23T00:46:38.223Z,76.92
2022-11-23T00:49:05.153Z,77.06
2022-11-23T00:51:34.492Z,76.61
2022-11-23T00:54:02.358Z,76.92
2022-11-23T00:56:30.257Z,77.25
2022-11-23T00:58:58.878Z,77.01
2022-11-23T01:01:33.796Z,77.13
2022-11-23T01:04:02.549Z,76.87
2022-11-23T01:06:31.583Z,77.14
2022-11-23T01:09:08.529Z,77.31
2022-11-23T01:11:35.506Z,76.83
2022-11-23T01:14:02.477Z,76.86
2022-11-23T01:16:35.049Z,76.66
2022-11-23T01:19:04.382Z,76.71
2022-11-23T01:21:32.295Z,77.08
2022-11-23T01:23:59.081Z,76.85
2022-11-23T01:26:26.110Z,76.75
2022-11-23T01:28:52.631Z,76.36
2022-11-23T01:31:21.375Z,76.80
2022-11-23T01:33:52.289Z,76.21
2022-11-23T01:36:21.370Z,76.28
2022-11-23T01:38:48.278Z,76.19
2022-11-23T01:41:24.281Z,76.28
2022-11-23T01:43:52.760Z,76.10
2022-11-23T01:46:19.858Z,76.50
2022-11-23T01:48:55.557Z,76.58
2022-11-23T01:51:27.513Z,76.36
2022-11-23T01:53:57.600Z,76.48
2022-11-23T01:56:29.282Z,76.48
2022-11-23T01:58:58.899Z,76.64
2022-11-23T02:01:25.520Z,76.49
2022-11-23T02:03:53.488Z,76.42
2022-11-23T02:06:22.576Z,76.47
2022-11-23T02:08:49.328Z,76.62
2022-11-23T02:11:17.213Z,76.32
2022-11-23T02:13:47.567Z,76.31
2022-11-23T02:16:14.573Z,76.54
2022-11-23T02:18:48.345Z,76.40
2022-11-23T02:21:15.209Z,76.45
2022-11-23T02:23:44.482Z,76.44
2022-11-23T02:26:13.825Z,76.52
2022-11-23T02:28:46.509Z,76.32
2022-11-23T02:31:13.113Z,76.74
2022-11-23T02:33:40.501Z,76.66
2022-11-23T02:36:31.953Z,76.43
2022-11-23T02:39:01.918Z,76.51
2022-11-23T02:41:35.378Z,76.53
2022-11-23T02:44:04.276Z,76.53
2022-11-23T02:46:30.783Z,76.53
2022-11-23T02:48:57.305Z,76.72
2022-11-23T02:51:23.788Z,76.66
2022-11-23T02:53:50.286Z,76.64
2022-11-23T02:56:16.775Z,76.64
2022-11-23T02:58:43.281Z,76.78
2022-11-23T03:01:09.903Z,76.43
2022-11-23T03:03:36.475Z,76.43
2022-11-23T03:06:03.017Z,76.26
2022-11-23T03:08:29.585Z,76.35
2022-11-23T03:10:56.078Z,76.47
2022-11-23T03:13:22.604Z,76.88
2022-11-23T03:15:49.235Z,76.93
2022-11-23T03:18:15.758Z,76.90
2022-11-23T03:20:42.265Z,76.85
2022-11-23T03:23:08.769Z,77.01
2022-11-23T03:25:35.305Z,77.13
2022-11-23T03:28:01.827Z,77.35
2022-11-23T03:30:28.341Z,77.45
2022-11-23T03:32:54.881Z,77.76
2022-11-23T03:35:21.431Z,77.81
2022-11-23T03:37:47.908Z,77.92
2022-11-23T03:40:14.501Z,77.86
2022-11-23T03:42:41.775Z,77.95
2022-11-23T03:45:09.429Z,78.10
2022-11-23T03:47:36.943Z,77.88
2022-11-23T03:50:03.553Z,77.98
2022-11-23T03:52:30.072Z,78.08
2022-11-23T03:54:56.758Z,78.46
2022-11-23T03:57:23.249Z,78.16
2022-11-23T03:59:49.780Z,78.86
2022-11-23T04:02:16.354Z,78.41
2022-11-23T04:04:42.880Z,78.77
2022-11-23T04:07:09.516Z,78.89
2022-11-23T04:09:36.146Z,78.87
2022-11-23T04:12:02.758Z,78.52
2022-11-23T04:14:29.252Z,78.83
2022-11-23T04:16:55.753Z,78.90
2022-11-23T04:19:22.405Z,78.71
2022-11-23T04:21:48.940Z,78.81
2022-11-23T04:24:15.466Z,78.92
2022-11-23T04:26:42.118Z,79.13
2022-11-23T04:29:08.677Z,79.35
2022-11-23T04:31:35.159Z,80.23
2022-11-23T04:34:01.666Z,80.11
2022-11-23T04:36:28.248Z,80.08
2022-11-23T04:38:54.954Z,80.09
2022-11-23T04:41:22.210Z,80.65
2022-11-23T04:43:49.204Z,80.51
2022-11-23T04:46:16.136Z,80.22
2022-11-23T04:48:42.633Z,79.85
2022-11-23T04:51:09.544Z,80.14
2022-11-23T04:53:36.113Z,80.12
2022-11-23T04:56:02.937Z,79.40
2022-11-23T04:58:33.138Z,79.26
2022-11-23T05:01:01.164Z,79.16
2022-11-23T05:03:27.753Z,79.06
2022-11-23T05:05:54.399Z,78.78
2022-11-23T05:08:20.918Z,78.80
2022-11-23T05:10:47.466Z,78.33
2022-11-23T05:13:14.037Z,78.58
2022-11-23T05:15:40.585Z,78.13
2022-11-23T05:18:08.003Z,78.30
2022-11-23T05:20:34.598Z,78.13
2022-11-23T05:23:01.120Z,78.27
2022-11-23T05:25:27.825Z,78.36
2022-11-23T05:27:54.365Z,78.11
2022-11-23T05:30:21.718Z,77.67
2022-11-23T05:32:48.319Z,77.72
2022-11-23T05:35:15.150Z,77.67
2022-11-23T05:37:42.241Z,77.75
2022-11-23T05:40:09.662Z,77.98
2022-11-23T05:42:36.144Z,78.38
2022-11-23T05:45:05.310Z,78.20
2022-11-23T05:47:33.967Z,78.13
2022-11-23T05:50:00.522Z,78.50
2022-11-23T05:52:27.086Z,78.52
2022-11-23T05:54:53.813Z,78.22
2022-11-23T05:57:22.422Z,78.41
2022-11-23T05:59:49.557Z,79.70
2022-11-23T06:02:16.120Z,80.65
2022-11-23T06:04:42.686Z,80.36
2022-11-23T06:07:09.264Z,79.06
2022-11-23T06:09:36.183Z,77.01
2022-11-23T06:12:02.704Z,76.59
2022-11-23T06:14:29.310Z,77.12
2022-11-23T06:16:55.853Z,77.39
2022-11-23T06:19:22.478Z,76.37
2022-11-23T06:21:50.506Z,76.66
2022-11-23T06:24:17.343Z,76.07
2022-11-23T06:26:43.848Z,74.67
2022-11-23T06:29:10.548Z,73.85
2022-11-23T06:31:37.188Z,73.61
2022-11-23T06:34:03.714Z,72.65
2022-11-23T06:36:30.286Z,72.78
2022-11-23T06:38:56.860Z,73.62
2022-11-23T06:41:27.010Z,73.17
2022-11-23T06:43:57.522Z,73.07
2022-11-23T06:46:24.057Z,73.50
2022-11-23T06:48:50.579Z,73.46
2022-11-23T06:51:17.161Z,73.86
2022-11-23T06:53:44.119Z,74.48
2022-11-23T06:56:10.944Z,74.84
2022-11-23T06:58:37.848Z,76.30
2022-11-23T07:01:07.621Z,76.20
2022-11-23T07:03:35.311Z,76.06
2022-11-23T07:06:11.189Z,75.22
2022-11-23T07:08:43.697Z,75.59
2022-11-23T07:11:12.098Z,75.71
2022-11-23T07:13:39.128Z,76.16
2022-11-23T07:16:07.011Z,76.40
2022-11-23T07:18:33.945Z,76.75
2022-11-23T07:21:00.672Z,77.06
2022-11-23T07:23:27.266Z,77.45
2022-11-23T07:25:53.776Z,77.89
2022-11-23T07:28:20.323Z,77.90
2022-11-23T07:30:49.900Z,78.19
2022-11-23T07:33:16.474Z,78.68
2022-11-23T07:35:43.018Z,78.33
2022-11-23T07:38:09.745Z,78.42
2022-11-23T07:40:37.668Z,78.88
2022-11-23T07:43:05.957Z,78.83
2022-11-23T07:45:33.454Z,79.19
2022-11-23T07:48:02.207Z,79.35
2022-11-23T07:50:29.273Z,79.40
2022-11-23T07:52:56.271Z,79.58
2022-11-23T07:55:23.580Z,79.74
2022-11-23T07:57:54.535Z,79.88
2022-11-23T08:00:22.286Z,80.17
2022-11-23T08:03:11.788Z,79.97
2022-11-23T08:05:36.312Z,79.80
2022-11-23T08:08:03.454Z,80.12
2022-11-23T08:10:31.177Z,79.52
2022-11-23T08:13:03.311Z,79.76
2022-11-23T08:15:30.133Z,79.54
2022-11-23T08:18:02.614Z,78.99
2022-11-23T08:20:30.157Z,78.87
2022-11-23T08:22:57.465Z,78.82
2022-11-23T08:25:25.425Z,78.59
2022-11-23T08:28:00.052Z,78.52
2022-11-23T08:30:27.388Z,78.31
2022-11-23T08:32:53.998Z,78.24
2022-11-23T08:35:21.583Z,77.50
2022-11-23T08:37:48.573Z,77.22
2022-11-23T08:40:16.658Z,77.11
2022-11-23T08:42:47.552Z,77.02
2022-11-23T08:45:14.160Z,77.03
2022-11-23T08:47:40.707Z,76.80
2022-11-23T08:50:07.472Z,76.43
2022-11-23T08:52:33.989Z,76.07
2022-11-23T08:55:01.403Z,75.68
2022-11-23T08:57:28.523Z,75.64
2022-11-23T08:59:55.074Z,75.62
2022-11-23T09:02:21.584Z,75.24
2022-11-23T09:04:48.452Z,75.22
2022-11-23T09:07:15.381Z,75.27
2022-11-23T09:09:41.966Z,74.92
2022-11-23T09:12:08.678Z,74.59
2022-11-23T09:14:35.635Z,74.64
2022-11-23T09:17:03.309Z,74.51
2022-11-23T09:19:29.980Z,74.46
2022-11-23T09:21:58.008Z,74.35
2022-11-23T09:24:25.900Z,74.20
2022-11-23T09:26:52.578Z,74.24
2022-11-23T09:29:19.365Z,74.03
2022-11-23T09:31:45.891Z,73.97
2022-11-23T09:34:14.237Z,73.89
2022-11-23T09:36:40.777Z,74.21
2022-11-23T09:39:08.301Z,74.28
2022-11-23T09:42:01.510Z,74.53
2022-11-23T09:44:52.247Z,74.83
2022-11-23T09:47:43.623Z,74.86
2022-11-23T09:50:18.201Z,74.90
2022-11-23T09:52:48.124Z,74.62
2022-11-23T09:55:42.290Z,74.99
2022-11-23T09:58:17.245Z,74.42
2022-11-23T10:00:48.758Z,74.54
2022-11-23T10:03:17.477Z,74.77
2022-11-23T10:05:53.805Z,74.38
2022-11-23T10:08:46.108Z,74.26
2022-11-23T10:11:15.590Z,74.42
2022-11-23T10:13:47.164Z,74.29
2022-11-23T10:16:25.996Z,74.14
2022-11-23T10:18:58.640Z,74.14
2022-11-23T10:21:36.702Z,73.80
2022-11-23T10:24:10.063Z,73.58
2022-11-23T10:26:40.502Z,73.13
2022-11-23T10:29:26.950Z,73.03
2022-11-23T10:31:57.239Z,72.90
2022-11-23T10:34:35.234Z,72.38
2022-11-23T10:37:01.960Z,72.08
2022-11-23T10:39:28.660Z,71.78
2022-11-23T10:42:03.438Z,71.92
2022-11-23T10:44:32.084Z,71.42
2022-11-23T10:47:00.256Z,71.20
2022-11-23T10:49:29.685Z,70.98
2022-11-23T10:51:56.209Z,70.46
2022-11-23T10:54:27.846Z,70.62
2022-11-23T10:56:55.625Z,69.78
2022-11-23T10:59:28.036Z,70.15
2022-11-23T11:02:14.521Z,69.60
2022-11-23T11:04:41.472Z,69.28
2022-11-23T11:07:29.228Z,69.27
2022-11-23T11:10:04.113Z,68.65
2022-11-23T11:12:34.968Z,68.50
2022-11-23T11:15:11.835Z,68.15
2022-11-23T11:17:41.047Z,68.24
2022-11-23T11:20:31.742Z,67.96
2022-11-23T11:23:01.494Z,67.61
2022-11-23T11:25:31.097Z,67.51
2022-11-23T11:27:59.231Z,66.44
2022-11-23T11:30:32.863Z,66.30
2022-11-23T11:33:09.707Z,65.83
2022-11-23T11:35:41.078Z,66.29
2022-11-23T11:38:25.207Z,66.09
2022-11-23T11:40:52.572Z,65.96
2022-11-23T11:43:39.998Z,66.21
2022-11-23T11:46:31.426Z,65.34
2022-11-23T11:49:07.496Z,65.45
2022-11-23T11:52:12.772Z,65.27
2022-11-23T11:54:43.828Z,64.75
2022-11-23T11:57:21.504Z,65.28
2022-11-23T11:59:52.957Z,65.38
2022-11-23T12:02:24.869Z,65.46
2022-11-23T12:05:10.391Z,65.69
2022-11-23T12:07:38.971Z,65.02
2022-11-23T12:10:24.912Z,65.40
2022-11-23T12:12:52.200Z,64.99
2022-11-23T12:18:34.742Z,64.72
2022-11-23T12:21:26.473Z,63.92
2022-11-23T12:24:16.177Z,63.76
2022-11-23T12:27:17.852Z,64.06
2022-11-23T12:30:14.864Z,63.36
2022-11-23T12:33:01.040Z,62.93
2022-11-23T12:35:27.493Z,62.71
2022-11-23T12:38:10.871Z,62.74
2022-11-23T12:40:56.280Z,61.73
2022-11-23T12:43:35.246Z,61.17
2022-11-23T12:46:06.157Z,62.09
2022-11-23T12:48:57.304Z,61.77
2022-11-23T12:51:54.656Z,62.37
2022-11-23T12:54:58.879Z,62.31
2022-11-23T12:57:33.350Z,62.59
2022-11-23T13:00:07.197Z,62.38
2022-11-23T13:02:54.911Z,62.16
2022-11-23T13:05:46.125Z,62.72
2022-11-23T13:08:31.398Z,62.59
2022-11-23T13:11:19.675Z,62.83
2022-11-23T13:13:54.033Z,63.80
2022-11-23T13:16:32.911Z,63.34
2022-11-23T13:19:04.403Z,63.58
2022-11-23T13:21:36.542Z,63.75
2022-11-23T13:24:03.645Z,63.58
2022-11-23T13:26:33.929Z,63.27
2022-11-23T13:29:22.854Z,63.63
2022-11-23T13:32:09.426Z,63.70
2022-11-23T13:34:47.437Z,63.38
2022-11-23T13:37:14.222Z,63.46
2022-11-23T13:40:00.272Z,63.04
2022-11-23T13:42:27.834Z,62.88
2022-11-23T13:45:39.288Z,63.81
2022-11-23T13:48:09.029Z,63.84
2022-11-23T13:50:38.187Z,64.37
2022-11-23T13:53:27.065Z,64.48
2022-11-23T13:55:56.714Z,65.86
2022-11-23T13:58:23.463Z,66.22
2022-11-23T14:00:52.769Z,66.84
2022-11-23T14:03:41.014Z,67.64
2022-11-23T14:06:22.908Z,69.20
2022-11-23T14:08:59.099Z,69.98
2022-11-23T14:11:27.292Z,70.61
2022-11-23T14:14:05.510Z,71.34
2022-11-23T14:16:55.048Z,71.85
2022-11-23T14:19:50.240Z,71.83
2022-11-23T14:22:44.756Z,72.71
2022-11-23T14:25:29.446Z,72.90
2022-11-23T14:28:18.126Z,73.56
2022-11-23T14:31:29.230Z,74.35
2022-11-23T14:34:07.630Z,75.05
2022-11-23T14:36:46.645Z,75.51
2022-11-23T14:39:40.723Z,75.56
2022-11-23T14:42:17.211Z,75.61
2022-11-23T14:44:45.050Z,76.41
2022-11-23T14:47:12.231Z,76.54
2022-11-23T14:49:49.815Z,76.90
2022-11-23T14:52:29.109Z,77.21
2022-11-23T14:54:58.738Z,77.16
2022-11-23T14:57:29.525Z,77.28
2022-11-23T14:59:59.983Z,77.27
2022-11-23T15:02:40.668Z,77.61
2022-11-23T15:05:26.849Z,77.60
2022-11-23T15:07:59.653Z,77.50
2022-11-23T15:10:50.534Z,78.15
2022-11-23T15:13:24.413Z,78.36
2022-11-23T15:15:53.800Z,78.45
2022-11-23T15:18:29.053Z,78.46
2022-11-23T15:20:59.522Z,78.73
2022-11-23T15:23:50.517Z,78.71
2022-11-23T15:26:46.829Z,78.70
2022-11-23T15:29:29.894Z,79.20
2022-11-23T15:32:22.391Z,79.32
2022-11-23T15:34:43.358Z,79.66
2022-11-23T15:37:11.183Z,79.71
2022-11-23T15:39:38.694Z,79.63
2022-11-23T15:42:06.374Z,80.24
2022-11-23T15:44:33.293Z,80.47
2022-11-23T15:47:08.925Z,80.47
2022-11-23T15:49:40.435Z,81.22
2022-11-23T15:52:07.403Z,81.69
2022-11-23T15:54:38.732Z,81.76
2022-11-23T15:57:13.426Z,81.87
2022-11-23T15:59:50.346Z,81.89
2022-11-23T16:02:23.976Z,81.83
2022-11-23T16:05:09.168Z,81.97
2022-11-23T16:07:53.500Z,82.02
2022-11-23T16:10:28.605Z,82.04
2022-11-23T16:12:57.647Z,82.27
2022-11-23T16:15:27.454Z,82.44
2022-11-23T16:17:54.110Z,82.94
2022-11-23T16:20:24.008Z,82.85
2022-11-23T16:22:52.907Z,82.85
2022-11-23T16:25:36.167Z,82.59
2022-11-23T16:28:05.676Z,82.70
2022-11-23T16:30:41.318Z,82.81
2022-11-23T16:33:15.254Z,83.12
2022-11-23T16:35:41.939Z,83.22
2022-11-23T16:38:08.711Z,83.19
2022-11-23T16:40:35.243Z,83.64
2022-11-23T16:43:03.968Z,83.65
2022-11-23T16:45:31.847Z,83.79
2022-11-23T16:48:03.114Z,84.06
2022-11-23T16:50:32.277Z,83.85
2022-11-23T16:53:14.535Z,84.45
2022-11-23T16:55:43.734Z,84.85
2022-11-23T16:58:15.727Z,84.75
2022-11-23T17:00:42.949Z,84.93
2022-11-23T17:03:21.000Z,84.94
2022-11-23T17:05:48.346Z,84.91
2022-11-23T17:08:21.620Z,84.94
2022-11-23T17:10:50.987Z,84.99
2022-11-23T17:13:27.300Z,85.11
2022-11-23T17:15:54.500Z,85.07
2022-11-23T17:18:22.296Z,85.70
2022-11-23T17:20:48.869Z,84.88
2022-11-23T17:23:15.436Z,84.88
2022-11-23T17:25:42.089Z,85.02
2022-11-23T17:28:16.369Z,85.26
2022-11-23T17:30:43.618Z,85.37
2022-11-23T17:33:11.851Z,85.25
2022-11-23T17:35:39.334Z,85.04
2022-11-23T17:38:07.774Z,85.05
2022-11-23T17:40:34.359Z,85.18
2022-11-23T17:43:00.905Z,84.83
2022-11-23T17:45:27.515Z,84.91
2022-11-23T17:47:54.234Z,85.01
2022-11-23T17:50:20.862Z,85.26
2022-11-23T17:52:48.394Z,85.33
2022-11-23T17:55:15.925Z,85.37
2022-11-23T17:57:42.917Z,85.50
2022-11-23T18:00:21.501Z,85.21
2022-11-23T18:02:48.153Z,85.16
2022-11-23T18:05:21.185Z,85.34
2022-11-23T18:07:48.946Z,85.37
2022-11-23T18:10:15.954Z,85.56
2022-11-23T18:12:44.572Z,85.59
2022-11-23T18:15:12.010Z,85.57
2022-11-23T18:17:39.131Z,85.92
2022-11-23T18:20:08.249Z,85.49
2022-11-23T18:22:35.438Z,85.25
2022-11-23T18:25:02.027Z,85.51
2022-11-23T18:27:29.829Z,85.48
2022-11-23T18:29:56.582Z,85.49
2022-11-23T18:32:23.277Z,85.24
2022-11-23T18:34:49.837Z,85.41
2022-11-23T18:37:16.363Z,85.50
2022-11-23T18:39:42.872Z,85.63
2022-11-23T18:42:09.954Z,85.82
2022-11-23T18:44:36.458Z,86.22
2022-11-23T18:47:03.096Z,85.95
2022-11-23T18:49:29.636Z,86.03
2022-11-23T18:51:56.165Z,86.10
2022-11-23T18:54:22.651Z,85.73
2022-11-23T18:56:49.150Z,85.64
2022-11-23T18:59:42.079Z,85.81
2022-11-23T19:02:02.261Z,85.80
2022-11-23T19:04:32.564Z,86.08
2022-11-23T19:06:59.065Z,86.01
2022-11-23T19:09:25.573Z,86.24
2022-11-23T19:11:52.125Z,85.92
2022-11-23T19:14:18.646Z,85.82
2022-11-23T19:16:45.280Z,85.98
2022-11-23T19:19:12.564Z,85.55
2022-11-23T19:21:39.304Z,86.18
2022-11-23T19:24:07.259Z,86.04
2022-11-23T19:26:33.807Z,85.96
2022-11-23T19:29:00.419Z,86.08
2022-11-23T19:31:29.875Z,85.79
2022-11-23T19:34:00.761Z,86.15
2022-11-23T19:36:29.095Z,85.63
2022-11-23T19:38:57.310Z,85.77
2022-11-23T19:41:29.568Z,85.75
2022-11-23T19:43:58.332Z,85.67
2022-11-23T19:46:25.214Z,85.73
2022-11-23T19:48:51.900Z,85.26
2022-11-23T19:51:20.047Z,85.18
2022-11-23T19:53:49.044Z,84.69
2022-11-23T19:56:19.558Z,84.45
2022-11-23T19:58:47.017Z,84.80
2022-11-23T20:01:18.580Z,84.29
2022-11-23T20:03:48.996Z,84.33
2022-11-23T20:06:21.779Z,84.28
2022-11-23T20:08:57.208Z,84.12
2022-11-23T20:11:24.782Z,84.04
2022-11-23T20:13:51.711Z,83.93
2022-11-23T20:16:20.293Z,83.62
2022-11-23T20:18:49.117Z,83.52
2022-11-23T20:21:17.506Z,83.74
2022-11-23T20:23:45.373Z,83.74
2022-11-23T20:26:19.220Z,83.95
2022-11-23T20:28:50.196Z,83.90
2022-11-23T20:31:20.623Z,83.67
2022-11-23T20:33:50.475Z,83.53
2022-11-23T20:36:16.955Z,83.84
2022-11-23T20:38:43.515Z,83.68
2022-11-23T20:41:13.785Z,83.74
2022-11-23T20:43:40.558Z,83.72
2022-11-23T20:46:07.309Z,83.76
2022-11-23T20:48:35.810Z,83.95
2022-11-23T20:51:10.173Z,83.86
2022-11-23T20:53:37.277Z,83.91
2022-11-23T20:56:05.863Z,83.73
2022-11-23T20:58:32.717Z,83.72
2022-11-23T21:01:07.233Z,83.46
2022-11-23T21:03:35.134Z,83.60
2022-11-23T21:06:06.124Z,83.45
2022-11-23T21:08:35.029Z,83.53
2022-11-23T21:11:24.673Z,83.20
2022-11-23T21:14:06.561Z,82.76
2022-11-23T21:16:39.779Z,82.89
2022-11-23T21:19:08.489Z,82.56
2022-11-23T21:21:36.550Z,82.66
2022-11-23T21:24:04.014Z,82.33
2022-11-23T21:26:30.701Z,82.22
2022-11-23T21:28:57.825Z,82.16
2022-11-23T21:31:25.751Z,82.21
2022-11-23T21:33:54.184Z,82.16
2022-11-23T21:36:22.412Z,82.34
2022-11-23T21:38:48.995Z,82.51
2022-11-23T21:41:20.683Z,82.47
2022-11-23T21:43:52.677Z,82.31
2022-11-23T21:46:19.354Z,82.56
2022-11-23T21:48:45.902Z,82.63
2022-11-23T21:51:15.452Z,82.58
2022-11-23T21:53:42.080Z,82.88
2022-11-23T21:56:13.902Z,83.13
2022-11-23T21:58:40.802Z,83.13
2022-11-23T22:01:32.032Z,83.22
2022-11-23T22:04:01.478Z,83.22
2022-11-23T22:06:28.408Z,83.71
2022-11-23T22:08:56.692Z,83.57
2022-11-23T22:11:32.133Z,83.58
2022-11-23T22:14:07.396Z,83.70
2022-11-23T22:16:49.798Z,83.48
2022-11-23T22:19:17.090Z,83.68
2022-11-23T22:21:45.082Z,83.38
2022-11-23T22:24:19.559Z,83.52
2022-11-23T22:26:47.641Z,83.77
2022-11-23T22:29:14.411Z,83.54
2022-11-23T22:31:41.237Z,83.49
2022-11-23T22:34:11.356Z,83.38
2022-11-23T22:36:38.004Z,83.64
2022-11-23T22:39:06.479Z,83.58
2022-11-23T22:41:39.379Z,83.55
2022-11-23T22:44:07.942Z,83.67
2022-11-23T22:46:35.041Z,83.11
2022-11-23T22:49:02.028Z,83.31
2022-11-23T22:51:30.003Z,83.63
2022-11-23T22:53:58.591Z,83.31
2022-11-23T22:56:26.375Z,83.35
2022-11-23T22:58:53.498Z,83.34
2022-11-23T23:01:22.518Z,82.98
2022-11-23T23:03:55.866Z,83.11
2022-11-23T23:06:28.431Z,83.20
2022-11-23T23:08:57.461Z,83.40
2022-11-23T23:11:26.964Z,83.33
2022-11-23T23:13:53.702Z,83.49
2022-11-23T23:16:20.432Z,83.53
2022-11-23T23:18:47.017Z,83.59
2022-11-23T23:21:19.849Z,83.56
2022-11-23T23:23:48.177Z,83.80
2022-11-23T23:26:17.245Z,83.80
2022-11-23T23:28:44.037Z,83.90
2022-11-23T23:31:14.243Z,84.00
2022-11-23T23:33:40.941Z,83.93
2022-11-23T23:36:12.341Z,83.97
2022-11-23T23:38:39.456Z,84.19
2022-11-23T23:41:07.579Z,84.15
2022-11-23T23:43:34.597Z,84.66
2022-11-23T23:46:03.147Z,84.48
2022-11-23T23:48:32.190Z,84.33
2022-11-23T23:50:58.744Z,84.15
2022-11-23T23:53:25.308Z,83.79
2022-11-23T23:55:59.644Z,83.98
2022-11-23T23:58:26.317Z,83.84
